Time;durP1;ratioP1;P1;durP2;ratioP2;P2;SDS_P1;SDS_P2;PMS_P1;PMS_P2;Temp;Humidity;BMP_temperature;BMP_pressure;BME280_temperature;BME280_humidity;BME280_pressure;Samples;Min_cycle;Max_cycle;Signal;HPM_P1;HPM_P2
2022/06/02 00:01:45;;;;;;;5.03;3.40;;;;;;;19.32;71.50;99507.69;1774129;80;20953;-42
2022/06/02 00:04:42;;;;;;;5.42;3.37;;;;;;;19.30;70.97;99510.09;1773883;80;21013;-42
2022/06/02 00:07:20;;;;;;;4.50;3.22;;;;;;;19.28;71.39;99502.25;1779344;80;21068;-42
2022/06/02 00:10:29;;;;;;;4.95;3.70;;;;;;;19.30;71.43;99506.75;1782405;80;21164;-42
2022/06/02 00:13:21;;;;;;;5.22;3.67;;;;;;;19.34;71.59;99505.32;1782629;80;20996;-42
2022/06/02 00:15:59;;;;;;;4.37;3.35;;;;;;;19.31;71.51;99501.44;1782565;80;20981;-41
2022/06/02 00:18:59;;;;;;;8.23;3.22;;;;;;;19.35;72.40;99511.78;1782651;80;21004;-42
2022/06/02 00:21:46;;;;;;;6.35;2.58;;;;;;;19.38;73.11;99539.03;1782520;80;21024;-42
2022/06/02 00:24:44;;;;;;;5.00;2.42;;;;;;;19.25;71.80;99533.33;1782412;80;21330;-42
2022/06/02 00:27:52;;;;;;;3.77;2.60;;;;;;;19.17;71.18;99546.96;1780937;80;20933;-42
2022/06/02 00:30:26;;;;;;;3.87;2.67;;;;;;;19.14;71.10;99555.26;1781587;80;20989;-42
2022/06/02 00:33:21;;;;;;;5.08;2.45;;;;;;;19.14;70.66;99545.05;1782593;80;20994;-42
2022/06/02 00:36:04;;;;;;;3.42;2.60;;;;;;;19.19;70.27;99542.44;1782371;80;21303;-42
2022/06/02 00:38:36;;;;;;;2.98;2.58;;;;;;;19.17;70.37;99553.08;1782333;80;21129;-42
2022/06/02 00:41:17;;;;;;;4.08;2.67;;;;;;;19.14;70.61;99552.52;1782827;80;20969;-42
2022/06/02 00:43:53;;;;;;;5.78;2.50;;;;;;;19.18;71.40;99564.23;1782549;80;20988;-42
2022/06/02 00:46:35;;;;;;;5.90;2.80;;;;;;;19.23;71.92;99565.94;1782497;80;21462;-42
2022/06/02 00:49:26;;;;;;;4.05;3.22;;;;;;;19.26;71.96;99567.88;1782584;80;20974;-42
2022/06/02 00:52:15;;;;;;;3.92;2.70;;;;;;;19.22;72.04;99573.23;1782371;80;21233;-42
2022/06/02 00:58:38;;;;;;;4.85;3.30;;;;;;;19.07;72.41;99574.01;1782479;80;20937;-42
2022/06/02 01:01:15;;;;;;;6.45;3.30;;;;;;;19.08;72.48;99580.45;1782334;80;20933;-42
2022/06/02 01:03:47;;;;;;;5.95;3.47;;;;;;;19.07;72.52;99576.13;1781838;80;21013;-42
2022/06/02 01:06:42;;;;;;;3.67;2.98;;;;;;;19.06;72.35;99581.47;1782340;80;20942;-42
2022/06/02 01:09:14;;;;;;;5.70;3.20;;;;;;;19.02;72.34;99575.84;1763455;80;20964;-42
2022/06/02 01:12:01;;;;;;;4.83;3.17;;;;;;;19.03;72.34;99579.52;1782019;80;20968;-42
2022/06/02 01:15:05;;;;;;;5.22;3.85;;;;;;;19.03;72.26;99582.27;1782204;80;21665;-42
2022/06/02 01:18:25;;;;;;;4.40;3.22;;;;;;;19.01;72.30;99578.39;1782254;80;21032;-42
2022/06/02 01:21:36;;;;;;;5.47;3.45;;;;;;;18.96;72.36;99578.84;1781906;80;22147;-41
2022/06/02 01:24:24;;;;;;;4.87;3.40;;;;;;;18.93;72.41;99579.05;1751417;82;21028;-42
2022/06/02 01:27:26;;;;;;;4.47;3.62;;;;;;;18.86;72.56;99574.25;1751272;82;21491;-42
2022/06/02 01:30:38;;;;;;;4.67;3.30;;;;;;;18.75;72.85;99572.98;1751145;82;21001;-41
2022/06/02 01:33:24;;;;;;;6.40;3.70;;;;;;;18.66;72.76;99567.98;1751621;82;21694;-42
2022/06/02 01:36:09;;;;;;;6.10;3.85;;;;;;;18.58;73.17;99563.77;1751400;82;21150;-42
2022/06/02 01:39:06;;;;;;;5.42;3.98;;;;;;;18.51;73.40;99552.02;1709747;82;21025;-42
2022/06/02 01:41:58;;;;;;;4.15;3.47;;;;;;;18.45;73.54;99550.90;1706499;82;21103;-42
2022/06/02 01:45:07;;;;;;;6.28;3.67;;;;;;;18.44;73.63;99543.28;1751591;82;21539;-42
2022/06/02 01:47:38;;;;;;;5.25;3.92;;;;;;;18.47;73.65;99545.80;1751487;82;20993;-42
2022/06/02 01:50:31;;;;;;;4.30;3.90;;;;;;;18.36;73.68;99532.17;1751887;82;21196;-42
2022/06/02 01:53:32;;;;;;;5.53;3.87;;;;;;;18.35;73.82;99533.35;1751473;82;21519;-42
2022/06/02 01:56:22;;;;;;;6.85;4.55;;;;;;;18.40;73.66;99537.03;1751438;82;20989;-42
2022/06/02 01:59:02;;;;;;;;;;;;;;;18.44;73.43;99532.30;1744274;82;21029;-42
2022/06/02 02:01:52;;;;;;;4.62;4.15;;;;;;;18.42;73.46;99536.63;1751447;82;20254;-42
2022/06/02 02:04:31;;;;;;;5.08;4.40;;;;;;;18.30;73.68;99539.28;1751451;82;21145;-42
2022/06/02 02:07:09;;;;;;;6.45;4.00;;;;;;;18.34;73.55;99535.93;1750855;82;20972;-42
2022/06/02 02:09:45;;;;;;;5.12;4.33;;;;;;;18.43;73.26;99540.94;1751439;82;20993;-42
2022/06/02 02:12:20;;;;;;;8.15;5.05;;;;;;;18.44;73.10;99535.05;1751014;82;20988;-42
2022/06/02 02:15:02;;;;;;;8.13;5.30;;;;;;;18.43;73.07;99536.23;1750375;82;21005;-42
2022/06/02 02:17:42;;;;;;;8.93;4.62;;;;;;;18.38;73.11;99540.01;1751265;82;21038;-42
2022/06/02 02:20:20;;;;;;;6.87;5.30;;;;;;;18.32;73.30;99543.78;1751453;82;21606;-42
2022/06/02 02:23:07;;;;;;;6.50;5.12;;;;;;;18.33;73.40;99545.34;1751366;82;21579;-42
2022/06/02 02:26:01;;;;;;;7.25;5.03;;;;;;;18.28;73.49;99549.91;1751194;82;21297;-42
2022/06/02 02:29:00;;;;;;;8.08;4.97;;;;;;;18.22;73.67;99550.92;1751395;82;21590;-42
2022/06/02 02:32:20;;;;;;;7.03;5.28;;;;;;;18.17;73.82;99556.06;1751595;82;21145;-42
2022/06/02 02:35:07;;;;;;;6.75;5.28;;;;;;;18.16;73.94;99558.63;1751230;82;20993;-42
2022/06/02 02:38:02;;;;;;;8.55;5.72;;;;;;;18.07;74.30;99553.61;1751401;82;21020;-42
2022/06/02 02:40:34;;;;;;;8.28;5.42;;;;;;;18.04;74.50;99557.76;1751216;82;21613;-42
2022/06/02 02:43:26;;;;;;;5.95;5.30;;;;;;;18.01;74.56;99565.44;1751519;82;21037;-42
2022/06/02 02:45:58;;;;;;;7.58;4.67;;;;;;;18.02;74.59;99568.34;1751179;82;21151;-41
2022/06/02 02:48:49;;;;;;;6.30;5.53;;;;;;;17.98;74.78;99564.27;1751324;82;20969;-42
2022/06/02 02:51:33;;;;;;;6.83;5.53;;;;;;;17.97;74.96;99571.52;1751300;82;20976;-42
2022/06/02 02:54:22;;;;;;;8.68;5.20;;;;;;;17.98;74.96;99568.97;1751557;82;21047;-42
2022/06/02 02:57:21;;;;;;;11.93;6.27;;;;;;;18.02;74.96;99571.09;1751899;82;21092;-42
2022/06/02 03:00:16;;;;;;;7.60;5.17;;;;;;;18.02;74.93;99569.72;1751786;82;22142;-41
2022/06/02 03:03:10;;;;;;;6.00;4.75;;;;;;;18.02;74.89;99572.45;1751613;82;21087;-42
2022/06/02 03:06:06;;;;;;;7.87;5.28;;;;;;;18.09;74.88;99570.45;1751670;82;20990;-42
2022/06/02 03:08:54;;;;;;;6.50;5.25;;;;;;;18.17;74.79;99571.16;1744740;82;21005;-42
2022/06/02 03:12:01;;;;;;;5.95;4.62;;;;;;;18.19;74.75;99579.19;1751702;82;21009;-42
2022/06/02 03:14:53;;;;;;;10.30;4.62;;;;;;;18.21;74.62;99575.44;1751734;82;21201;-42
2022/06/02 03:17:49;;;;;;;6.95;5.20;;;;;;;18.29;74.54;99574.02;1751099;82;21522;-42
2022/06/02 03:20:36;;;;;;;6.75;4.78;;;;;;;18.34;74.63;99571.61;1751440;82;21032;-42
2022/06/02 03:23:21;;;;;;;6.67;4.67;;;;;;;18.36;74.71;99565.11;1751441;82;20945;-42
2022/06/02 03:25:52;;;;;;;5.25;4.50;;;;;;;18.44;74.55;99567.99;1751309;82;21407;-42
2022/06/02 03:28:49;;;;;;;6.08;4.35;;;;;;;18.54;74.38;99569.86;1751711;82;21654;-42
2022/06/02 03:31:44;;;;;;;6.05;5.00;;;;;;;18.63;73.97;99571.55;1717306;82;21084;-42
2022/06/02 03:34:36;;;;;;;6.42;4.85;;;;;;;18.65;73.38;99580.73;1751522;82;20989;-42
2022/06/02 03:37:14;;;;;;;5.67;4.90;;;;;;;18.63;73.34;99580.38;1751392;82;20973;-42
2022/06/02 03:40:18;;;;;;;6.95;5.00;;;;;;;18.66;73.19;99583.09;1751420;82;21053;-42
2022/06/02 03:43:04;;;;;;;6.03;5.42;;;;;;;18.68;72.95;99585.44;1751451;82;21239;-42
2022/06/02 03:45:59;;;;;;;7.58;4.97;;;;;;;18.68;73.20;99584.66;1751295;82;21041;-42
2022/06/02 03:48:37;;;;;;;5.67;5.08;;;;;;;18.64;73.17;99582.70;1751485;82;21079;-42
2022/06/02 03:51:34;;;;;;;7.72;5.42;;;;;;;18.68;73.25;99584.66;1751397;82;21096;-42
2022/06/02 03:54:43;;;;;;;6.17;5.55;;;;;;;18.68;73.32;99580.53;1751472;82;21507;-42
2022/06/02 03:57:30;;;;;;;5.97;4.80;;;;;;;18.63;73.74;99577.05;1751716;82;22061;-42
2022/06/02 04:00:09;;;;;;;8.85;5.10;;;;;;;18.64;73.75;99575.84;1751715;82;21539;-42
2022/06/02 04:03:02;;;;;;;7.67;5.58;;;;;;;18.71;73.62;99578.33;1751644;82;21861;-41
2022/06/02 04:05:46;;;;;;;6.53;5.83;;;;;;;18.74;73.65;99579.66;1751602;82;21024;-41
2022/06/02 04:08:23;;;;;;;9.53;4.80;;;;;;;18.78;73.68;99576.30;1740767;82;21052;-42
2022/06/02 04:13:37;;;;;;;8.28;5.58;;;;;;;18.82;73.37;99587.24;1751276;82;23151;-42
2022/06/02 04:14:10;;;;;;;8.48;7.47;;;;;;;18.89;73.22;99593.43;1746933;82;21091;-42
2022/06/02 04:16:53;;;;;;;8.88;7.97;;;;;;;18.96;73.14;99593.95;1751543;82;20973;-42
2022/06/02 04:22:52;;;;;;;7.30;5.30;;;;;;;19.09;72.40;99593.59;1751387;82;21048;-42
2022/06/02 04:25:52;;;;;;;6.65;5.90;;;;;;;19.13;72.11;99592.17;1730803;82;21210;-42
2022/06/02 04:28:43;;;;;;;6.33;5.65;;;;;;;19.15;72.07;99593.92;1751373;82;21488;-42
2022/06/02 04:31:34;;;;;;;7.20;5.12;;;;;;;19.17;72.02;99592.94;1751410;82;21060;-42
2022/06/02 04:34:27;;;;;;;6.60;5.20;;;;;;;19.23;72.12;99602.26;1751466;82;21013;-42
2022/06/02 04:37:06;;;;;;;10.72;5.30;;;;;;;19.29;71.82;99602.77;1751389;82;21040;-42
2022/06/02 04:39:48;;;;;;;8.20;5.42;;;;;;;19.33;71.72;99594.48;1751247;82;21778;-42
2022/06/02 04:42:39;;;;;;;4.83;4.10;;;;;;;19.35;71.69;99595.64;1751417;82;20985;-42
2022/06/02 04:45:30;;;;;;;9.45;4.75;;;;;;;19.38;71.77;99593.42;1751588;82;21542;-42
2022/06/02 04:48:24;;;;;;;6.33;4.83;;;;;;;19.47;71.71;99602.56;1751605;82;21084;-42
2022/06/02 04:51:02;;;;;;;8.43;5.20;;;;;;;19.53;71.09;99605.83;1751587;82;21103;-42
2022/06/02 04:54:08;;;;;;;5.70;5.12;;;;;;;19.57;70.95;99607.74;1747664;82;21164;-42
2022/06/02 04:57:04;;;;;;;6.37;5.00;;;;;;;19.58;70.91;99604.58;1751343;82;21013;-42
2022/06/02 04:59:58;;;;;;;5.55;4.92;;;;;;;19.63;70.76;99604.72;1751322;82;20945;-42
2022/06/02 05:02:43;;;;;;;5.67;4.95;;;;;;;19.65;70.49;99600.97;1658774;86;21060;-42
2022/06/02 05:05:41;;;;;;;5.65;4.83;;;;;;;19.65;70.63;99592.13;1732391;82;21119;-42
2022/06/02 05:08:25;;;;;;;5.22;4.50;;;;;;;19.72;70.58;99591.22;1748347;82;21256;-42
2022/06/02 05:11:31;;;;;;;5.30;4.62;;;;;;;19.81;70.95;99587.35;1742862;82;20984;-42
2022/06/02 05:14:26;;;;;;;7.75;4.58;;;;;;;19.88;70.82;99583.13;1743310;82;21033;-42
2022/06/02 05:17:04;;;;;;;6.65;4.97;;;;;;;19.94;70.49;99586.98;1743410;82;20986;-42
2022/06/02 05:20:18;;;;;;;6.37;4.40;;;;;;;20.02;70.37;99591.76;1743240;82;21009;-42
2022/06/02 05:23:16;;;;;;;7.22;4.47;;;;;;;20.08;69.83;99590.88;1743318;82;21818;-42
2022/06/02 05:26:01;;;;;;;5.58;4.90;;;;;;;20.17;69.21;99606.27;1743053;82;21487;-42
2022/06/02 05:29:25;;;;;;;5.92;4.67;;;;;;;20.21;69.35;99607.58;1733698;82;21020;-42
2022/06/02 05:32:21;;;;;;;5.37;4.62;;;;;;;20.27;69.22;99605.31;1743775;82;21092;-42
2022/06/02 05:35:35;;;;;;;5.00;4.45;;;;;;;20.25;69.82;99600.81;1743640;82;21053;-42
2022/06/02 05:38:39;;;;;;;5.15;4.65;;;;;;;20.31;69.62;99599.77;1743558;82;21143;-42
2022/06/02 05:42:03;;;;;;;6.37;5.15;;;;;;;20.32;69.53;99599.36;1743661;82;21504;-42
2022/06/02 05:44:39;;;;;;;6.83;5.00;;;;;;;20.35;69.80;99602.64;1743161;82;21528;-42
2022/06/02 05:47:33;;;;;;;6.50;4.50;;;;;;;20.32;69.82;99601.33;1738192;82;21507;-42
2022/06/02 05:50:15;;;;;;;5.20;4.35;;;;;;;20.34;69.46;99598.33;1743392;82;21020;-42
2022/06/02 05:53:16;;;;;;;6.55;5.12;;;;;;;20.41;69.42;99604.91;1742650;82;21247;-42
2022/06/02 05:56:16;;;;;;;10.15;5.50;;;;;;;20.45;69.77;99612.52;1733509;82;21029;-42
2022/06/02 05:59:32;;;;;;;5.75;4.37;;;;;;;20.50;69.87;99620.30;1733560;82;20965;-42
2022/06/02 06:02:22;;;;;;;5.50;4.95;;;;;;;20.56;70.16;99616.65;1733655;82;21092;-42
2022/06/02 06:05:29;;;;;;;6.53;4.92;;;;;;;20.70;69.20;99611.48;1682691;85;21120;-42
2022/06/02 06:08:19;;;;;;;5.50;4.72;;;;;;;20.79;69.49;99615.84;1731548;82;21263;-42
2022/06/02 06:11:15;;;;;;;5.50;5.00;;;;;;;20.87;68.46;99614.50;1738777;82;21567;-42
2022/06/02 06:13:53;;;;;;;12.07;4.35;;;;;;;20.97;68.31;99608.01;1738887;82;21032;-42
2022/06/02 06:16:39;;;;;;;4.20;3.80;;;;;;;21.10;67.83;99610.33;1738960;82;21722;-42
2022/06/02 06:19:21;;;;;;;6.70;4.20;;;;;;;21.20;67.51;99609.34;1738973;82;21044;-42
2022/06/02 06:22:21;;;;;;;5.33;4.58;;;;;;;21.27;67.13;99609.80;1738951;82;21128;-42
2022/06/02 06:25:13;;;;;;;8.33;3.87;;;;;;;21.36;67.09;99614.74;1738617;82;20977;-42
2022/06/02 06:27:55;;;;;;;6.62;3.77;;;;;;;21.44;66.10;99616.95;1702456;82;20994;-43
2022/06/02 06:30:34;;;;;;;5.00;3.87;;;;;;;21.56;65.85;99609.98;1739080;82;21084;-42
2022/06/02 06:33:13;;;;;;;4.53;3.87;;;;;;;21.72;65.33;99611.41;1739174;82;20998;-42
2022/06/02 06:36:05;;;;;;;4.12;3.72;;;;;;;21.82;65.03;99617.89;1739335;82;21889;-42
2022/06/02 06:38:37;;;;;;;5.53;4.22;;;;;;;21.89;64.70;99617.11;1738897;82;20993;-42
2022/06/02 06:41:30;;;;;;;4.87;3.70;;;;;;;21.96;64.33;99611.47;1738972;82;21032;-43
2022/06/02 06:44:12;;;;;;;8.18;3.85;;;;;;;22.04;64.03;99614.23;1738800;82;21016;-43
2022/06/02 06:47:04;;;;;;;5.53;3.70;;;;;;;22.12;64.30;99616.23;1739105;82;21579;-43
2022/06/02 06:49:52;;;;;;;4.70;3.95;;;;;;;22.27;64.11;99615.29;1738813;82;23310;-43
2022/06/02 06:53:02;;;;;;;5.65;4.62;;;;;;;22.44;63.36;99620.96;1738890;82;20969;-43
2022/06/02 06:55:50;;;;;;;4.65;4.10;;;;;;;22.59;62.58;99628.28;1738890;82;21020;-43
2022/06/02 06:58:43;;;;;;;4.90;4.30;;;;;;;22.68;61.73;99625.08;1714785;82;21057;-43
2022/06/02 07:01:46;;;;;;;5.87;4.53;;;;;;;22.76;60.90;99618.17;1739084;82;21013;-43
2022/06/02 07:04:33;;;;;;;8.68;5.00;;;;;;;22.84;61.21;99629.23;1739162;82;21133;-42
2022/06/02 07:07:15;;;;;;;7.70;5.50;;;;;;;22.96;61.41;99632.64;1738975;82;20993;-42
2022/06/02 07:10:08;;;;;;;9.18;6.10;;;;;;;23.13;60.17;99636.14;1735145;82;21084;-43
2022/06/02 07:12:51;;;;;;;11.50;6.42;;;;;;;23.29;59.01;99635.28;1733577;82;20910;-43
2022/06/02 07:15:41;;;;;;;8.75;6.80;;;;;;;23.43;58.21;99636.25;1734118;82;21531;-43
2022/06/02 07:18:45;;;;;;;9.53;6.25;;;;;;;23.52;58.34;99631.51;1733868;82;21146;-43
2022/06/02 07:21:53;;;;;;;9.60;6.62;;;;;;;23.63;58.78;99633.33;1734310;82;21021;-43
2022/06/02 07:24:46;;;;;;;11.12;7.70;;;;;;;23.78;58.58;99636.62;1733920;82;20977;-43
2022/06/02 07:27:34;;;;;;;13.48;7.65;;;;;;;23.89;58.02;99638.29;1733575;82;21025;-43
2022/06/02 07:30:32;;;;;;;9.93;7.30;;;;;;;23.96;56.24;99637.47;1733884;82;21060;-43
2022/06/02 07:33:22;;;;;;;10.25;7.28;;;;;;;24.04;55.90;99640.78;1734838;81;21057;-43
2022/06/02 07:36:14;;;;;;;13.88;7.28;;;;;;;24.12;55.78;99640.11;1744009;82;21479;-43
2022/06/02 07:39:20;;;;;;;11.83;7.22;;;;;;;24.19;55.42;99640.53;1743496;82;21595;-43
2022/06/02 07:42:33;;;;;;;9.53;6.67;;;;;;;24.28;55.39;99643.40;1743576;81;20922;-43
2022/06/02 07:45:17;;;;;;;12.45;7.95;;;;;;;24.34;54.87;99640.23;1743665;82;21009;-43
2022/06/02 07:48:13;;;;;;;8.88;6.87;;;;;;;24.41;54.75;99646.14;1743861;82;21291;-43
2022/06/02 07:50:47;;;;;;;10.28;6.92;;;;;;;24.49;54.74;99647.48;1743579;82;21585;-43
2022/06/02 07:53:23;;;;;;;9.13;5.55;;;;;;;24.64;54.06;99651.33;1743656;81;21029;-43
2022/06/02 07:56:39;;;;;;;10.70;5.70;;;;;;;24.75;53.51;99652.33;1706032;82;21527;-43
2022/06/02 07:59:32;;;;;;;11.00;6.28;;;;;;;24.83;53.40;99659.97;1691235;84;21546;-43
2022/06/02 08:02:20;;;;;;;9.15;5.40;;;;;;;24.93;53.12;99660.86;1703318;81;21155;-43
2022/06/02 08:05:44;;;;;;;6.87;4.60;;;;;;;25.01;52.22;99665.70;1743836;82;21563;-43
2022/06/02 08:08:39;;;;;;;5.83;4.58;;;;;;;25.10;51.43;99662.22;1743658;81;21066;-43
2022/06/02 08:11:30;;;;;;;7.42;5.37;;;;;;;25.19;52.45;99663.67;1728029;81;21594;-43
2022/06/02 08:14:13;;;;;;;6.42;4.75;;;;;;;25.32;52.20;99664.38;1743747;82;20990;-43
2022/06/02 08:17:00;;;;;;;5.58;4.15;;;;;;;25.45;50.69;99665.72;1743504;81;21995;-43
2022/06/02 08:20:05;;;;;;;5.25;4.25;;;;;;;25.51;51.42;99660.49;1743625;82;21024;-43
2022/06/02 08:22:52;;;;;;;5.00;3.77;;;;;;;25.67;51.68;99663.70;1743700;81;20938;-43
2022/06/02 08:25:23;;;;;;;5.78;4.05;;;;;;;25.80;50.11;99666.41;1743674;82;21021;-43
2022/06/02 08:28:22;;;;;;;4.35;3.40;;;;;;;25.90;50.02;99657.64;1744148;81;21053;-43
2022/06/02 08:31:39;;;;;;;5.60;3.67;;;;;;;26.05;48.61;99661.25;1743791;81;21135;-43
2022/06/02 08:34:21;;;;;;;5.65;3.58;;;;;;;26.09;49.05;99664.69;1743718;82;20981;-43
2022/06/02 08:37:10;;;;;;;3.47;3.12;;;;;;;26.16;47.94;99660.22;1743892;81;21607;-43
2022/06/02 08:39:51;;;;;;;3.72;3.40;;;;;;;26.27;47.19;99657.21;1743538;82;21002;-43
2022/06/02 08:42:39;;;;;;;4.45;3.20;;;;;;;26.39;48.17;99657.70;1743783;82;21049;-43
2022/06/02 08:45:36;;;;;;;3.67;2.80;;;;;;;26.48;47.53;99656.94;1743921;82;21312;-43
2022/06/02 08:48:34;;;;;;;3.92;2.83;;;;;;;26.57;46.71;99660.38;1743505;82;21498;-43
2022/06/02 08:51:44;;;;;;;3.02;2.70;;;;;;;26.62;46.87;99656.38;1743552;81;21085;-43
2022/06/02 08:54:47;;;;;;;3.50;2.62;;;;;;;26.74;45.08;99647.72;1743577;81;20925;-43
2022/06/02 08:57:49;;;;;;;5.53;2.90;;;;;;;26.88;44.66;99640.17;1730585;81;21021;-43
2022/06/02 09:01:01;;;;;;;3.37;2.10;;;;;;;27.03;44.58;99645.28;1743799;82;21194;-43
2022/06/02 09:03:56;;;;;;;3.35;2.98;;;;;;;27.09;42.96;99649.61;1743690;81;20966;-43
2022/06/02 09:06:51;;;;;;;2.65;2.45;;;;;;;27.19;42.30;99646.36;1726703;82;21073;-43
2022/06/02 09:09:48;;;;;;;3.77;2.65;;;;;;;27.37;42.89;99646.17;1734479;82;21389;-43
2022/06/02 09:12:44;;;;;;;3.55;2.60;;;;;;;27.58;41.56;99647.41;1711597;83;21036;-43
2022/06/02 09:15:44;;;;;;;4.17;2.83;;;;;;;27.77;42.40;99643.94;1711065;83;21142;-43
2022/06/02 09:18:24;;;;;;;4.72;3.02;;;;;;;27.96;41.44;99638.45;1711332;83;21534;-43
2022/06/02 09:21:11;;;;;;;3.15;2.75;;;;;;;28.05;41.58;99640.41;1711414;83;20965;-43
2022/06/02 09:24:17;;;;;;;6.60;3.52;;;;;;;28.05;40.51;99641.19;1711329;83;21024;-43
2022/06/02 09:27:36;;;;;;;5.62;3.55;;;;;;;28.00;41.52;99644.62;1711416;83;21052;-43
2022/06/02 09:30:09;;;;;;;5.25;3.65;;;;;;;27.95;42.58;99648.05;1710653;83;21154;-43
2022/06/02 09:33:33;;;;;;;5.62;4.10;;;;;;;27.99;42.63;99632.54;1711349;83;20930;-43
2022/06/02 09:35:44;;;;;;;5.58;3.77;;;;;;;28.06;43.47;99634.38;1697021;83;21554;-43
2022/06/02 09:38:37;;;;;;;5.62;4.65;;;;;;;28.13;44.34;99629.09;1711532;83;21085;-43
2022/06/02 09:41:12;;;;;;;6.87;4.30;;;;;;;28.16;43.41;99633.73;1708045;83;20987;-43
2022/06/02 09:44:24;;;;;;;8.73;4.60;;;;;;;28.13;43.12;99631.13;1711328;83;23138;-43
2022/06/02 09:47:08;;;;;;;8.38;4.92;;;;;;;28.13;43.94;99630.48;1700466;83;21028;-43
2022/06/02 09:50:18;;;;;;;6.45;4.65;;;;;;;28.10;44.22;99627.23;1711181;83;20964;-43
2022/06/02 09:53:12;;;;;;;;;;;;;;;28.08;44.13;99618.55;1713965;83;21015;-43
2022/06/02 09:56:30;;;;;;;6.42;4.25;;;;;;;28.10;42.82;99617.47;1711530;83;20178;-43
2022/06/02 09:59:30;;;;;;;5.80;4.40;;;;;;;28.15;43.07;99618.25;1711490;83;21145;-43
2022/06/02 10:02:09;;;;;;;4.80;4.30;;;;;;;28.26;43.01;99610.77;1690583;83;20965;-43
2022/06/02 10:04:50;;;;;;;5.33;4.08;;;;;;;28.28;41.79;99606.24;1711603;83;21020;-43
2022/06/02 10:07:42;;;;;;;5.70;4.35;;;;;;;28.29;41.97;99603.61;1711580;83;21078;-43
2022/06/02 10:10:39;;;;;;;5.72;4.25;;;;;;;28.26;40.91;99598.22;1728204;81;21053;-43
2022/06/02 10:13:29;;;;;;;6.33;4.12;;;;;;;28.21;41.08;99596.85;1747267;81;21096;-43
2022/06/02 10:16:05;;;;;;;8.20;3.60;;;;;;;28.25;41.47;99587.68;1746994;82;20918;-43
2022/06/02 10:18:50;;;;;;;5.65;4.15;;;;;;;28.46;42.34;99585.84;1746928;81;20998;-43
2022/06/02 10:25:35;;;;;;;4.65;3.22;;;;;;;29.19;40.26;99582.45;1823929;76;22011;-43
2022/06/02 10:28:20;;;;;;;5.92;3.15;;;;;;;29.26;40.23;99580.66;1796928;79;20914;-42
2022/06/02 10:31:08;;;;;;;2.85;2.55;;;;;;;29.45;39.37;99579.23;1768861;79;22168;-43
2022/06/02 10:33:48;;;;;;;5.30;2.80;;;;;;;29.71;39.46;99571.78;1797152;79;20927;-43
2022/06/02 10:36:47;;;;;;;3.65;2.90;;;;;;;29.99;38.12;99572.84;1796900;79;20899;-43
2022/06/02 10:39:23;;;;;;;4.08;2.90;;;;;;;30.18;37.51;99571.33;1796997;79;20985;-43
2022/06/02 10:42:38;;;;;;;4.97;2.55;;;;;;;30.37;37.17;99569.02;1796911;79;20954;-43
2022/06/02 10:45:39;;;;;;;3.55;2.80;;;;;;;30.61;36.06;99556.38;1731482;82;21232;-43
2022/06/02 10:48:34;;;;;;;4.00;2.35;;;;;;;30.95;36.49;99556.73;1775676;79;21001;-43
2022/06/02 10:51:37;;;;;;;4.17;2.72;;;;;;;31.27;35.77;99552.75;1795944;79;20989;-43
2022/06/02 10:54:25;;;;;;;3.70;2.58;;;;;;;31.54;35.35;99547.22;1796995;79;21469;-43
2022/06/02 10:57:18;;;;;;;4.95;3.17;;;;;;;31.73;35.32;99547.00;1796954;79;20966;-43
2022/06/02 10:59:55;;;;;;;5.40;3.15;;;;;;;31.95;34.67;99546.38;1739758;79;21437;-43
2022/06/02 11:03:03;;;;;;;4.80;3.15;;;;;;;32.19;33.92;99535.57;1737059;79;20969;-43
2022/06/02 11:06:03;;;;;;;4.15;2.85;;;;;;;32.15;34.70;99527.23;1796997;79;21225;-43
2022/06/02 11:09:10;;;;;;;3.22;2.50;;;;;;;32.19;34.33;99523.58;1773633;79;20973;-43
2022/06/02 11:11:55;;;;;;;4.60;3.02;;;;;;;32.17;34.17;99512.84;1796704;79;21400;-43
2022/06/02 11:14:46;;;;;;;4.92;3.00;;;;;;;32.16;35.04;99511.31;1796724;79;21129;-43
2022/06/02 11:17:29;;;;;;;5.90;3.05;;;;;;;32.34;35.42;99506.66;1796574;79;22064;-43
2022/06/02 11:20:45;;;;;;;3.37;3.00;;;;;;;32.68;34.59;99502.56;1796570;79;20935;-43
2022/06/02 11:23:52;;;;;;;4.47;3.22;;;;;;;32.79;33.35;99496.97;1797783;79;21081;-43
2022/06/02 11:26:51;;;;;;;5.00;3.08;;;;;;;32.78;34.00;99499.64;1802446;79;21088;-43
2022/06/02 11:29:27;;;;;;;5.30;3.12;;;;;;;32.83;33.87;99500.92;1776738;79;21247;-43
2022/06/02 11:32:11;;;;;;;3.98;3.10;;;;;;;32.82;33.58;99493.80;1800935;79;20938;-43
2022/06/02 11:34:53;;;;;;;5.28;2.98;;;;;;;32.93;34.08;99485.36;1801860;79;21292;-43
2022/06/02 11:37:53;;;;;;;5.83;3.30;;;;;;;33.06;34.05;99489.86;1801921;79;21019;-43
2022/06/02 11:40:54;;;;;;;4.70;3.08;;;;;;;33.16;34.22;99480.67;1801841;79;21024;-43
2022/06/02 11:43:25;;;;;;;4.62;3.10;;;;;;;33.23;33.71;99474.41;1801787;79;21283;-43
2022/06/02 11:46:42;;;;;;;3.72;2.80;;;;;;;33.59;33.58;99471.31;1801707;79;21076;-43
2022/06/02 11:49:20;;;;;;;5.50;3.45;;;;;;;33.97;32.60;99461.23;1801626;79;20965;-43
2022/06/02 11:52:23;;;;;;;4.75;3.10;;;;;;;34.27;31.98;99457.80;1801431;79;21439;-43
2022/06/02 11:55:11;;;;;;;5.37;3.40;;;;;;;34.41;31.21;99448.25;1782735;79;21002;-43
2022/06/02 11:57:46;;;;;;;4.72;3.00;;;;;;;34.34;30.96;99451.61;1780974;79;21212;-43
2022/06/02 12:00:44;;;;;;;5.37;3.00;;;;;;;34.50;31.00;99447.94;1801755;79;21009;-43
2022/06/02 12:03:45;;;;;;;7.85;3.42;;;;;;;34.73;31.22;99443.70;1801544;79;21041;-43
2022/06/02 12:07:06;;;;;;;4.40;3.12;;;;;;;35.02;31.09;99440.77;1801842;79;20974;-43
2022/06/02 12:10:12;;;;;;;5.58;3.15;;;;;;;35.40;30.61;99443.13;1764213;80;21059;-44
2022/06/02 12:12:57;;;;;;;6.50;3.50;;;;;;;35.56;30.29;99435.14;1801673;79;21102;-43
2022/06/02 12:15:44;;;;;;;7.95;3.40;;;;;;;35.79;30.40;99438.48;1801226;79;21536;-43
2022/06/02 12:18:19;;;;;;;6.83;3.12;;;;;;;35.92;27.67;99437.84;1801657;79;21064;-43
2022/06/02 12:21:16;;;;;;;4.72;2.90;;;;;;;35.51;28.95;99424.69;1801859;79;20994;-44
2022/06/02 12:24:07;;;;;;;6.62;3.30;;;;;;;35.36;28.81;99418.70;1801515;79;20991;-44
2022/06/02 12:27:14;;;;;;;6.20;3.42;;;;;;;35.04;29.55;99415.66;1801362;79;21160;-43
2022/06/02 12:30:05;;;;;;;4.25;3.40;;;;;;;34.74;29.87;99424.11;1801685;79;20938;-43
2022/06/02 12:32:57;;;;;;;5.70;3.65;;;;;;;34.33;31.19;99426.92;1801604;79;20942;-43
2022/06/02 12:35:54;;;;;;;5.50;3.72;;;;;;;34.11;31.42;99427.66;1801734;79;20990;-44
2022/06/02 12:38:41;;;;;;;4.95;3.45;;;;;;;33.67;30.96;99426.57;1763920;79;21714;-43
2022/06/02 12:41:28;;;;;;;6.08;3.87;;;;;;;33.30;32.23;99424.73;1801482;79;21342;-43
2022/06/02 12:44:25;;;;;;;4.62;3.40;;;;;;;33.23;32.75;99425.23;1801191;79;21200;-43
2022/06/02 12:47:00;;;;;;;6.17;3.67;;;;;;;32.96;33.16;99433.17;1801482;79;20961;-43
2022/06/02 12:50:20;;;;;;;4.17;3.25;;;;;;;32.83;33.05;99430.72;1801806;79;21018;-43
2022/06/02 12:53:35;;;;;;;4.42;3.17;;;;;;;33.03;33.69;99422.81;1801139;79;21540;-43
2022/06/02 12:56:28;;;;;;;5.25;3.58;;;;;;;33.39;33.06;99418.20;1801721;79;21127;-43
2022/06/02 12:59:36;;;;;;;5.58;3.80;;;;;;;33.76;32.67;99406.59;1782564;79;21523;-43
2022/06/02 13:02:41;;;;;;;5.62;3.67;;;;;;;34.24;32.21;99408.17;1738715;82;21127;-43
2022/06/02 13:05:37;;;;;;;4.92;3.40;;;;;;;34.75;31.45;99406.57;1738747;82;21329;-43
2022/06/02 13:08:36;;;;;;;5.30;3.55;;;;;;;35.10;31.42;99408.57;1798181;79;20977;-43
2022/06/02 13:11:41;;;;;;;4.45;3.40;;;;;;;35.37;30.88;99399.08;1806808;79;21124;-43
2022/06/02 13:14:38;;;;;;;3.92;3.20;;;;;;;35.55;29.77;99395.54;1808859;79;20968;-43
2022/06/02 13:17:43;;;;;;;4.50;3.40;;;;;;;35.60;29.76;99396.12;1782731;80;20973;-45
2022/06/02 13:20:24;;;;;;;6.22;3.27;;;;;;;35.66;30.60;99390.45;1757868;81;21029;-45
2022/06/02 13:23:15;;;;;;;5.65;3.42;;;;;;;35.89;30.37;99381.05;1758466;81;21333;-45
2022/06/02 13:26:12;;;;;;;5.00;3.58;;;;;;;36.11;29.38;99376.52;1793193;79;21114;-44
2022/06/02 13:29:03;;;;;;;5.62;3.20;;;;;;;36.09;29.79;99381.92;1816920;79;21565;-44
2022/06/02 13:32:11;;;;;;;7.08;3.20;;;;;;;35.93;30.57;99378.67;1816855;79;21008;-44
2022/06/02 13:35:31;;;;;;;5.22;3.58;;;;;;;35.78;30.54;99379.80;1816781;79;21020;-44
2022/06/02 13:38:56;;;;;;;6.20;3.20;;;;;;;35.37;29.89;99382.81;1816803;79;22097;-44
2022/06/02 13:41:42;;;;;;;4.50;2.85;;;;;;;34.81;30.54;99374.23;1818349;79;21816;-44
2022/06/02 13:44:51;;;;;;;6.85;3.40;;;;;;;34.41;31.06;99380.05;1817796;79;21015;-44